Time;durP1;ratioP1;P1;durP2;ratioP2;P2;SDS_P1;SDS_P2;PMS_P1;PMS_P2;Temp;Humidity;BMP_temperature;BMP_pressure;BME280_temperature;BME280_humidity;BME280_pressure;Samples;Min_cycle;Max_cycle;Signal;HPM_P1;HPM_P2
2022/03/26 00:02:22;;;;;;;36.67;15.93;;;;;;;5.53;100.00;-23971.19;5031563;28;20626;-72
2022/03/26 00:04:47;;;;;;;28.30;16.23;;;;;;;5.59;100.00;-23972.75;5031497;28;20274;-73
2022/03/26 00:07:13;;;;;;;34.33;16.77;;;;;;;5.45;100.00;-23968.94;5031870;28;20194;-72
2022/03/26 00:09:38;;;;;;;31.70;16.43;;;;;;;5.00;100.00;-23956.25;5013885;28;20241;-72
2022/03/26 00:12:06;;;;;;;36.63;17.50;;;;;;;5.18;100.00;-23961.38;5014274;28;20175;-74
2022/03/26 00:14:32;;;;;;;35.03;17.47;;;;;;;4.60;100.00;-23944.88;5031611;28;20297;-72
2022/03/26 00:16:58;;;;;;;34.27;18.17;;;;;;;4.86;100.00;-23952.44;5031351;28;20295;-73
2022/03/26 00:19:23;;;;;;;38.30;17.53;;;;;;;4.37;100.00;-23938.47;5031667;28;20630;-75
2022/03/26 00:21:49;;;;;;;33.03;16.80;;;;;;;4.58;100.00;-23944.47;5032175;28;20185;-72
2022/03/26 00:24:14;;;;;;;35.80;17.07;;;;;;;4.42;100.00;-23940.03;5031426;28;20179;-69
2022/03/26 00:26:40;;;;;;;39.70;17.80;;;;;;;4.47;100.00;-23941.31;5013483;28;20549;-71
2022/03/26 00:29:08;;;;;;;32.20;17.40;;;;;;;3.81;100.00;-23922.81;5031984;28;20182;-72
2022/03/26 00:31:33;;;;;;;35.03;18.00;;;;;;;4.49;100.00;-23941.75;5031201;28;20694;-73
2022/03/26 00:34:00;;;;;;;37.97;17.77;;;;;;;4.56;100.00;-23943.88;5033257;28;20293;-72
2022/03/26 00:36:26;;;;;;;35.77;17.97;;;;;;;4.36;100.00;-23938.19;5031217;28;20332;-70
2022/03/26 00:38:52;;;;;;;42.00;18.47;;;;;;;4.19;100.00;-23933.50;5030941;28;20264;-75
2022/03/26 00:41:18;;;;;;;32.83;17.90;;;;;;;3.65;100.00;-23918.25;5031584;28;20173;-71
2022/03/26 00:43:43;;;;;;;40.63;19.20;;;;;;;3.73;100.00;-23920.38;5031358;28;20180;-71
2022/03/26 00:46:11;;;;;;;36.77;19.10;;;;;;;4.15;100.00;-23932.34;5032965;28;20183;-73
2022/03/26 00:48:37;;;;;;;36.83;18.20;;;;;;;4.14;100.00;-23932.06;5035055;28;20175;-73
2022/03/26 00:51:02;;;;;;;38.33;18.13;;;;;;;3.67;100.00;-23918.69;5035343;28;20180;-71
2022/03/26 00:53:28;;;;;;;34.17;19.33;;;;;;;3.83;100.00;-23923.25;5034122;28;20180;-72
2022/03/26 00:55:53;;;;;;;37.47;18.30;;;;;;;4.05;100.00;-23929.50;5016644;28;20267;-74
2022/03/26 00:58:19;;;;;;;38.13;19.87;;;;;;;3.68;100.00;-23918.97;5034131;28;20685;-74
2022/03/26 01:00:44;;;;;;;32.43;19.13;;;;;;;4.07;100.00;-23930.06;5034431;28;20184;-72
2022/03/26 01:03:10;;;;;;;36.97;18.70;;;;;;;3.54;100.00;-23915.13;5034787;28;20178;-75
2022/03/26 01:05:37;;;;;;;41.40;18.90;;;;;;;3.51;100.00;-23914.25;5034105;28;20759;-72
2022/03/26 01:08:03;;;;;;;39.23;20.60;;;;;;;3.09;100.00;-23902.44;5034510;28;20181;-70
2022/03/26 01:10:28;;;;;;;40.43;20.57;;;;;;;3.74;100.00;-23920.69;5036640;28;20192;-73
2022/03/26 01:12:54;;;;;;;32.77;19.23;;;;;;;3.67;100.00;-23918.69;5034267;28;20188;-72
2022/03/26 01:15:20;;;;;;;38.07;20.93;;;;;;;3.55;100.00;-23915.41;5034229;28;20195;-70
2022/03/26 01:17:46;;;;;;;34.43;19.97;;;;;;;3.13;100.00;-23903.44;5034259;28;20242;-75
2022/03/26 01:20:12;;;;;;;39.70;20.63;;;;;;;3.19;100.00;-23905.28;5033919;28;20543;-72
2022/03/26 01:22:38;;;;;;;39.83;21.30;;;;;;;3.16;100.00;-23904.44;5034181;28;20616;-74
2022/03/26 01:25:06;;;;;;;38.63;21.60;;;;;;;3.09;100.00;-23902.44;5033424;28;20238;-71
2022/03/26 01:27:32;;;;;;;37.30;21.97;;;;;;;2.94;100.00;-23898.16;5033286;28;20172;-70
2022/03/26 01:29:57;;;;;;;42.63;21.57;;;;;;;3.16;100.00;-23904.44;5034659;28;20182;-73
2022/03/26 01:32:23;;;;;;;47.10;22.03;;;;;;;2.89;100.00;-23896.88;5034357;28;20176;-72
2022/03/26 01:34:48;;;;;;;42.53;21.43;;;;;;;3.23;100.00;-23906.44;5034425;28;20654;-69
2022/03/26 01:37:16;;;;;;;42.80;22.70;;;;;;;3.18;100.00;-23905.00;5034317;28;20187;-71
2022/03/26 01:39:42;;;;;;;43.47;22.87;;;;;;;3.33;100.00;-23909.13;5034544;28;20194;-71
2022/03/26 01:42:08;;;;;;;41.23;21.43;;;;;;;2.94;100.00;-23898.28;5034330;28;20524;-72
2022/03/26 01:44:35;;;;;;;42.10;21.73;;;;;;;3.63;100.00;-23917.53;5034264;28;20179;-72
2022/03/26 01:47:00;;;;;;;39.87;21.20;;;;;;;3.63;100.00;-23917.53;5034156;28;20344;-72
2022/03/26 01:49:27;;;;;;;41.80;20.83;;;;;;;3.01;100.00;-23900.28;5033937;28;20583;-73
2022/03/26 01:51:53;;;;;;;42.63;22.30;;;;;;;3.20;100.00;-23905.56;5034332;28;20262;-74
2022/03/26 01:54:19;;;;;;;40.93;22.43;;;;;;;2.80;100.00;-23894.16;5032989;28;20184;-71
2022/03/26 01:56:45;;;;;;;44.63;22.80;;;;;;;2.65;100.00;-23890.16;5033207;28;20662;-75
2022/03/26 01:59:11;;;;;;;42.10;23.13;;;;;;;3.02;100.00;-23900.44;5033930;28;20198;-71
2022/03/26 02:01:38;;;;;;;47.60;24.57;;;;;;;3.30;100.00;-23908.28;5034107;28;20655;-73
2022/03/26 02:04:05;;;;;;;47.90;24.57;;;;;;;2.86;100.00;-23896.00;5033675;28;20237;-73
2022/03/26 02:06:32;;;;;;;51.00;22.60;;;;;;;3.13;100.00;-23903.56;5033346;28;20281;-73
2022/03/26 02:09:03;;;;;;;46.63;24.00;;;;;;;3.23;100.00;-23906.44;5033906;28;20171;-73
2022/03/26 02:11:41;;;;;;;49.53;23.70;;;;;;;3.01;100.00;-23900.16;5015973;28;20706;-71
2022/03/26 02:14:12;;;;;;;51.13;23.57;;;;;;;3.24;100.00;-23906.56;5034413;28;20180;-74
2022/03/26 02:16:40;;;;;;;45.57;24.17;;;;;;;3.39;100.00;-23910.97;5016408;28;20264;-73
2022/03/26 02:19:07;;;;;;;50.57;23.93;;;;;;;2.89;100.00;-23896.72;5034003;28;20176;-72
2022/03/26 02:21:34;;;;;;;51.97;25.37;;;;;;;3.07;100.00;-23902.00;5033572;28;20245;-73
2022/03/26 02:24:02;;;;;;;42.83;22.50;;;;;;;2.69;100.00;-23891.16;5015719;28;20198;-75
2022/03/26 02:26:28;;;;;;;47.30;23.87;;;;;;;2.91;100.00;-23897.44;5032182;28;20195;-71
2022/03/26 02:28:55;;;;;;;53.87;26.03;;;;;;;3.00;100.00;-23899.88;5034934;28;20174;-73
2022/03/26 02:31:22;;;;;;;49.47;24.40;;;;;;;3.19;100.00;-23905.28;5034758;28;20615;-74
2022/03/26 02:33:48;;;;;;;46.40;23.50;;;;;;;3.37;100.00;-23910.28;5033430;28;20172;-70
2022/03/26 02:36:14;;;;;;;50.57;24.20;;;;;;;2.85;100.00;-23895.72;5033308;28;20214;-74
2022/03/26 02:38:40;;;;;;;48.53;23.90;;;;;;;3.07;100.00;-23901.84;5033106;28;20203;-72
2022/03/26 02:41:07;;;;;;;45.60;23.03;;;;;;;2.76;100.00;-23893.16;5033095;28;20266;-70
2022/03/26 02:43:33;;;;;;;49.80;24.67;;;;;;;2.67;100.00;-23890.59;5033299;28;20172;-71
2022/03/26 02:45:59;;;;;;;58.77;26.53;;;;;;;3.13;100.00;-23903.56;5033103;28;20175;-72
2022/03/26 02:48:24;;;;;;;54.73;26.63;;;;;;;2.82;100.00;-23894.88;5033167;28;20175;-76
2022/03/26 02:50:50;;;;;;;57.33;26.90;;;;;;;2.94;100.00;-23898.28;5032418;28;20553;-74
2022/03/26 02:53:15;;;;;;;58.13;27.53;;;;;;;3.06;100.00;-23901.56;5032894;28;20308;-73
2022/03/26 02:55:41;;;;;;;54.00;27.97;;;;;;;2.58;100.00;-23888.16;5033152;28;20171;-72
2022/03/26 02:58:09;;;;;;;57.53;27.57;;;;;;;3.05;100.00;-23901.28;5033878;28;20233;-71
2022/03/26 03:00:36;;;;;;;56.87;27.43;;;;;;;2.97;100.00;-23899.00;5011429;28;20234;-69
2022/03/26 03:03:01;;;;;;;57.20;28.63;;;;;;;2.87;100.00;-23896.28;5022500;28;20191;-74
2022/03/26 03:05:27;;;;;;;61.07;28.03;;;;;;;2.72;100.00;-23892.03;5032415;28;20219;-73
2022/03/26 03:07:53;;;;;;;64.70;28.83;;;;;;;2.37;100.00;-23882.03;5032473;28;20298;-71
2022/03/26 03:10:20;;;;;;;51.17;27.47;;;;;;;2.72;100.00;-23892.03;5032469;28;20167;-71
2022/03/26 03:12:47;;;;;;;57.70;27.07;;;;;;;2.62;100.00;-23889.16;5032664;28;20281;-73
2022/03/26 03:15:14;;;;;;;54.10;28.60;;;;;;;2.62;100.00;-23889.31;5032502;28;20194;-74
2022/03/26 03:17:41;;;;;;;52.07;27.33;;;;;;;2.49;100.00;-23885.59;5032343;28;20282;-72
2022/03/26 03:20:08;;;;;;;55.37;26.90;;;;;;;2.74;100.00;-23892.59;5032198;28;20163;-74
2022/03/26 03:22:35;;;;;;;53.93;28.53;;;;;;;2.26;100.00;-23878.88;5032613;28;20175;-71
2022/03/26 03:25:00;;;;;;;62.43;30.13;;;;;;;2.18;100.00;-23876.88;5032249;28;20207;-72
2022/03/26 03:27:26;;;;;;;52.40;27.90;;;;;;;2.11;100.00;-23874.88;5032161;28;20206;-72
2022/03/26 03:29:52;;;;;;;56.40;27.90;;;;;;;2.24;100.00;-23878.47;5032376;28;20178;-70
2022/03/26 03:32:17;;;;;;;54.20;28.60;;;;;;;2.21;100.00;-23877.75;5032360;28;20600;-71
2022/03/26 03:34:43;;;;;;;60.77;30.17;;;;;;;2.78;100.00;-23893.72;5034337;28;20183;-73
2022/03/26 03:37:08;;;;;;;57.90;29.27;;;;;;;2.66;100.00;-23890.44;5032237;28;20678;-71
2022/03/26 03:39:34;;;;;;;54.77;28.67;;;;;;;2.65;100.00;-23890.16;5031905;28;20194;-70
2022/03/26 03:41:59;;;;;;;60.40;27.93;;;;;;;2.44;100.00;-23884.16;5032384;28;20262;-71
2022/03/26 03:44:25;;;;;;;56.73;28.10;;;;;;;2.12;100.00;-23875.16;5032056;28;20187;-73
2022/03/26 03:46:51;;;;;;;62.07;28.70;;;;;;;2.67;100.00;-23890.72;5032166;28;20187;-69
2022/03/26 03:49:17;;;;;;;55.17;29.07;;;;;;;2.21;100.00;-23877.59;5031902;28;20266;-71
2022/03/26 03:51:42;;;;;;;54.80;28.17;;;;;;;2.28;100.00;-23879.59;5032245;28;20660;-71
2022/03/26 03:54:08;;;;;;;55.77;30.03;;;;;;;2.58;100.00;-23888.16;5031963;28;20250;-71
2022/03/26 03:56:34;;;;;;;61.67;29.53;;;;;;;2.72;100.00;-23891.88;5031671;28;20175;-75
2022/03/26 03:59:00;;;;;;;62.47;28.93;;;;;;;2.92;100.00;-23897.72;5031938;28;20178;-75
2022/03/26 04:01:25;;;;;;;71.43;29.87;;;;;;;2.96;100.00;-23898.72;5031279;28;20522;-70
2022/03/26 04:03:51;;;;;;;60.13;28.53;;;;;;;2.78;100.00;-23893.72;5036576;28;20218;-72
2022/03/26 04:06:17;;;;;;;62.97;28.87;;;;;;;2.40;100.00;-23883.03;5040932;28;20268;-70
2022/03/26 04:08:42;;;;;;;59.87;28.63;;;;;;;2.34;100.00;-23881.31;5039265;28;20201;-73
2022/03/26 04:11:08;;;;;;;60.83;29.27;;;;;;;2.45;100.00;-23884.44;5035253;28;20480;-72
2022/03/26 04:13:33;;;;;;;52.77;27.97;;;;;;;2.47;100.00;-23885.03;5038357;28;20744;-72
2022/03/26 04:15:59;;;;;;;55.97;28.27;;;;;;;2.61;100.00;-23889.03;5037786;28;20187;-73
2022/03/26 04:18:24;;;;;;;53.90;27.83;;;;;;;2.53;100.00;-23886.59;5041157;28;20232;-73
2022/03/26 04:20:52;;;;;;;55.03;27.30;;;;;;;2.08;100.00;-23873.88;5039530;28;20591;-73
2022/03/26 04:23:18;;;;;;;56.13;26.67;;;;;;;2.27;100.00;-23879.31;5037480;28;20179;-73
2022/03/26 04:25:44;;;;;;;46.93;25.70;;;;;;;2.21;100.00;-23877.59;5034444;28;20639;-69
2022/03/26 04:28:10;;;;;;;51.37;27.03;;;;;;;1.95;100.00;-23870.16;5039526;28;20251;-72
2022/03/26 04:30:35;;;;;;;47.67;26.47;;;;;;;2.12;100.00;-23875.16;5038284;28;20187;-71
2022/03/26 04:33:01;;;;;;;47.53;26.20;;;;;;;1.94;100.00;-23870.03;5038274;28;20273;-71
2022/03/26 04:35:26;;;;;;;54.93;26.67;;;;;;;1.78;100.00;-23865.47;5040876;28;20240;-69
2022/03/26 04:37:55;;;;;;;54.63;26.70;;;;;;;1.80;100.00;-23865.88;5034868;28;20217;-74
2022/03/26 04:40:21;;;;;;;50.17;27.47;;;;;;;2.14;100.00;-23875.59;5038021;28;20264;-72
2022/03/26 04:42:46;;;;;;;54.80;25.93;;;;;;;1.64;100.00;-23861.47;5039661;28;20182;-72
2022/03/26 04:45:12;;;;;;;54.67;27.03;;;;;;;1.95;100.00;-23870.16;5039676;28;20264;-71
2022/03/26 04:47:38;;;;;;;54.40;27.83;;;;;;;2.22;100.00;-23878.03;5039513;28;20603;-73
2022/03/26 04:50:05;;;;;;;55.27;26.50;;;;;;;2.11;100.00;-23874.75;5035947;28;20183;-74
2022/03/26 04:52:30;;;;;;;55.50;27.57;;;;;;;2.07;100.00;-23873.59;5037074;28;20179;-73
2022/03/26 04:54:56;;;;;;;58.37;27.67;;;;;;;2.50;100.00;-23885.72;5038460;28;20551;-71
2022/03/26 04:57:21;;;;;;;54.90;27.73;;;;;;;2.98;100.00;-23899.28;5036053;28;20297;-72
2022/03/26 04:59:47;;;;;;;55.53;29.10;;;;;;;2.43;100.00;-23883.88;5037787;28;20274;-72
2022/03/26 05:02:13;;;;;;;62.10;29.97;;;;;;;2.72;100.00;-23892.03;5038219;28;20175;-70
2022/03/26 05:04:39;;;;;;;65.80;32.83;;;;;;;2.86;100.00;-23895.88;5037561;28;20257;-73
2022/03/26 05:07:45;;;;;;;78.27;34.10;;;;;;;2.96;100.00;-23898.72;5021012;28;20190;-72
2022/03/26 05:09:51;;;;;;;75.03;29.60;;;;;;;2.93;100.00;-23898.00;5039127;28;20535;-73
2022/03/26 05:12:17;;;;;;;60.33;31.27;;;;;;;3.07;100.00;-23901.84;5038530;28;20197;-72
2022/03/26 05:14:43;;;;;;;58.57;29.07;;;;;;;2.77;100.00;-23893.31;5038322;28;20184;-75
2022/03/26 05:17:09;;;;;;;58.57;28.30;;;;;;;2.88;100.00;-23896.44;5039013;28;20293;-76
2022/03/26 05:19:35;;;;;;;65.73;31.20;;;;;;;3.58;100.00;-23916.25;5040532;28;20184;-71
2022/03/26 05:22:00;;;;;;;59.80;30.30;;;;;;;3.82;100.00;-23922.97;5038767;28;20254;-72
2022/03/26 05:24:26;;;;;;;55.73;29.87;;;;;;;4.15;100.00;-23932.22;5038168;28;20192;-70
2022/03/26 05:26:51;;;;;;;56.13;28.97;;;;;;;4.09;100.00;-23930.66;5036744;28;20630;-72
2022/03/26 05:29:17;;;;;;;56.03;28.17;;;;;;;3.95;100.00;-23926.66;5033155;28;20193;-74
2022/03/26 05:31:44;;;;;;;56.13;27.60;;;;;;;3.92;100.00;-23925.94;5033524;28;20194;-72
2022/03/26 05:34:09;;;;;;;50.90;26.50;;;;;;;4.56;100.00;-23943.75;5016690;28;20538;-74
2022/03/26 05:36:35;;;;;;;52.77;26.57;;;;;;;4.64;100.00;-23946.03;5037004;28;20906;-72
2022/03/26 05:39:01;;;;;;;54.93;27.30;;;;;;;4.96;100.00;-23955.00;5035558;28;20243;-72
2022/03/26 05:41:27;;;;;;;45.83;26.83;;;;;;;4.86;100.00;-23952.44;5035404;28;20194;-72
2022/03/26 05:43:53;;;;;;;54.73;28.97;;;;;;;5.30;100.00;-23964.66;5035860;28;20273;-74
2022/03/26 05:46:19;;;;;;;57.83;29.63;;;;;;;5.47;100.00;-23969.50;5016818;28;20183;-73
2022/03/26 05:48:45;;;;;;;54.97;29.00;;;;;;;5.37;100.00;-23966.50;5035930;28;20629;-73
2022/03/26 05:51:12;;;;;;;54.90;27.80;;;;;;;5.11;100.00;-23959.41;5016763;28;20673;-72
2022/03/26 05:53:37;;;;;;;49.67;27.33;;;;;;;5.17;100.00;-23960.97;5035206;28;20184;-72
2022/03/26 05:56:03;;;;;;;53.67;27.13;;;;;;;5.40;100.00;-23967.38;5036168;28;20178;-72
2022/03/26 05:58:29;;;;;;;47.33;27.20;;;;;;;5.78;100.00;-23978.16;5035768;28;20230;-70
2022/03/26 06:00:54;;;;;;;49.37;26.53;;;;;;;5.73;100.00;-23976.75;5036582;28;20179;-73
2022/03/26 06:03:20;;;;;;;55.30;27.13;;;;;;;6.01;100.00;-23984.69;5035074;28;20187;-73
2022/03/26 06:05:46;;;;;;;47.53;25.87;;;;;;;6.06;100.00;-23986.13;5033855;28;20665;-72
2022/03/26 06:08:12;;;;;;;47.63;26.83;;;;;;;6.43;100.00;-23996.34;5033177;28;20184;-71
2022/03/26 06:10:39;;;;;;;54.83;28.97;;;;;;;6.47;100.00;-23997.47;5035281;28;20206;-73
2022/03/26 06:13:04;;;;;;;61.17;28.90;;;;;;;6.37;100.00;-23994.66;5035364;28;20217;-72
2022/03/26 06:15:34;;;;;;;60.40;28.30;;;;;;;7.00;100.00;-24012.53;5034112;28;20207;-72
2022/03/26 06:17:59;;;;;;;53.10;29.23;;;;;;;7.24;100.00;-24019.19;5035309;28;20277;-71
2022/03/26 06:20:26;;;;;;;58.13;28.37;;;;;;;7.15;100.00;-24016.50;5034115;28;20198;-72
2022/03/26 06:22:52;;;;;;;55.47;29.27;;;;;;;7.14;100.00;-24016.34;5035373;28;20185;-71
2022/03/26 06:25:19;;;;;;;51.80;28.20;;;;;;;7.27;100.00;-24020.03;5036071;28;20211;-73
2022/03/26 06:27:47;;;;;;;55.90;29.70;;;;;;;7.48;100.00;-24025.84;5034282;28;20201;-74
2022/03/26 06:30:13;;;;;;;60.60;29.20;;;;;;;7.43;100.00;-24024.44;5035698;28;20186;-74
2022/03/26 06:32:38;;;;;;;51.70;29.73;;;;;;;7.57;100.00;-24028.41;5034191;28;20560;-71
2022/03/26 06:35:05;;;;;;;52.97;28.20;;;;;;;7.58;100.00;-24028.53;5034944;28;20273;-73
2022/03/26 06:37:30;;;;;;;58.70;26.97;;;;;;;7.79;100.00;-24034.63;5034607;28;20571;-73
2022/03/26 06:39:56;;;;;;;57.23;26.73;;;;;;;7.09;100.00;-24015.06;5036378;28;20194;-72
2022/03/26 06:42:22;;;;;;;57.23;27.43;;;;;;;7.35;100.00;-24022.16;5036604;28;20221;-71
2022/03/26 06:44:48;;;;;;;50.67;28.03;;;;;;;7.36;100.00;-24022.44;5030830;28;20537;-74
2022/03/26 06:47:14;;;;;;;52.00;27.03;;;;;;;7.98;100.00;-24040.03;5035091;28;21887;-75
2022/03/26 06:49:41;;;;;;;53.20;26.57;;;;;;;7.88;100.00;-24037.19;5033868;28;20179;-74
2022/03/26 06:52:08;;;;;;;46.63;27.83;;;;;;;8.03;100.00;-24041.28;5036910;28;20847;-74
2022/03/26 06:54:33;;;;;;;54.57;27.93;;;;;;;7.67;99.74;-24031.25;5034913;28;20175;-72
2022/03/26 06:56:59;;;;;;;56.13;27.60;;;;;;;7.94;98.01;-24038.75;5034445;28;20183;-73
2022/03/26 06:59:25;;;;;;;51.43;26.17;;;;;;;8.39;96.64;-24051.34;5035604;28;20558;-74
2022/03/26 07:01:51;;;;;;;54.87;27.50;;;;;;;8.33;96.84;-24049.66;5034740;28;20520;-75
2022/03/26 07:04:17;;;;;;;55.53;28.23;;;;;;;8.61;94.53;-24057.56;5034491;28;20278;-74
2022/03/26 07:06:43;;;;;;;47.87;26.73;;;;;;;8.65;94.36;-24058.56;5035928;28;20223;-73
2022/03/26 07:09:09;;;;;;;49.53;27.20;;;;;;;8.66;97.10;-24059.00;5035248;28;20190;-70
2022/03/26 07:11:34;;;;;;;48.53;26.30;;;;;;;8.95;95.52;-24066.91;5034517;28;20206;-71
2022/03/26 07:14:00;;;;;;;45.80;26.00;;;;;;;9.11;93.23;-24071.44;5034062;28;20209;-73
2022/03/26 07:16:26;;;;;;;43.17;25.20;;;;;;;8.96;92.14;-24067.19;5035344;28;20261;-72
2022/03/26 07:18:52;;;;;;;51.90;26.80;;;;;;;8.96;93.13;-24067.34;5033715;28;20202;-72
2022/03/26 07:21:17;;;;;;;46.03;26.20;;;;;;;8.21;93.02;-24046.41;5034618;28;20727;-72
2022/03/26 07:23:43;;;;;;;48.60;26.77;;;;;;;8.94;93.45;-24066.78;5033489;28;20689;-73
2022/03/26 07:26:09;;;;;;;48.77;26.07;;;;;;;9.29;91.60;-24076.53;5032870;28;20605;-66
2022/03/26 07:28:34;;;;;;;45.60;26.37;;;;;;;9.60;93.91;-24085.16;5031302;28;20233;-68
2022/03/26 07:31:00;;;;;;;44.70;25.40;;;;;;;9.80;88.91;-24090.66;5035179;28;20505;-66
2022/03/26 07:33:27;;;;;;;41.83;23.47;;;;;;;9.94;92.62;-24094.63;5015656;28;20282;-67
2022/03/26 07:35:53;;;;;;;41.43;23.60;;;;;;;9.62;90.63;-24085.72;5033272;28;20258;-66
2022/03/26 07:38:18;;;;;;;44.40;25.00;;;;;;;9.60;92.25;-24085.28;5032726;28;20653;-65
2022/03/26 07:40:44;;;;;;;42.03;24.10;;;;;;;9.26;93.71;-24075.69;5032808;28;20175;-69
2022/03/26 07:43:10;;;;;;;42.07;23.97;;;;;;;9.28;92.14;-24076.38;5032293;28;20245;-67
2022/03/26 07:45:36;;;;;;;44.07;22.43;;;;;;;9.79;92.17;-24090.38;5033004;28;20213;-64
2022/03/26 07:48:02;;;;;;;45.43;22.33;;;;;;;9.74;90.88;-24089.25;5034526;28;20218;-68
2022/03/26 07:50:28;;;;;;;38.70;21.50;;;;;;;10.34;87.95;-24105.91;5032291;28;20669;-66
2022/03/26 07:52:54;;;;;;;36.87;20.40;;;;;;;10.07;90.68;-24098.28;5032988;28;20175;-67
2022/03/26 07:55:20;;;;;;;41.70;22.30;;;;;;;10.33;85.95;-24105.63;5031049;28;20281;-67
2022/03/26 07:57:46;;;;;;;33.83;21.00;;;;;;;10.28;85.18;-24104.22;5031623;28;20302;-69
2022/03/26 08:00:12;;;;;;;34.30;19.17;;;;;;;10.56;85.75;-24112.13;5033345;28;21757;-67
2022/03/26 08:02:38;;;;;;;38.13;20.73;;;;;;;10.57;82.01;-24112.25;5031457;28;20289;-64
2022/03/26 08:05:05;;;;;;;35.83;19.20;;;;;;;10.46;81.19;-24109.31;5032849;28;20670;-68
2022/03/26 08:07:32;;;;;;;43.87;21.00;;;;;;;10.91;80.89;-24121.72;5029745;28;20241;-65
2022/03/26 08:09:58;;;;;;;35.70;21.33;;;;;;;11.09;80.26;-24126.78;5032063;28;20275;-66
2022/03/26 08:12:24;;;;;;;31.63;20.23;;;;;;;10.98;81.28;-24123.84;5032060;28;20179;-71
2022/03/26 08:14:50;;;;;;;43.10;21.37;;;;;;;11.10;79.59;-24127.06;5032193;28;20183;-69
2022/03/26 08:17:16;;;;;;;40.40;21.37;;;;;;;11.03;79.28;-24125.09;5034216;28;20235;-67
2022/03/26 08:19:42;;;;;;;39.43;20.70;;;;;;;10.98;82.69;-24123.84;5032192;28;20244;-67
2022/03/26 08:22:08;;;;;;;33.30;20.43;;;;;;;11.29;78.65;-24132.44;5032931;28;20631;-68
2022/03/26 08:24:33;;;;;;;44.57;20.77;;;;;;;11.33;78.54;-24133.56;5033338;28;20672;-66
2022/03/26 08:26:59;;;;;;;43.93;21.50;;;;;;;11.63;78.11;-24141.72;5033176;28;20237;-65
2022/03/26 08:29:25;;;;;;;42.53;22.10;;;;;;;12.21;75.68;-24158.06;5034129;28;20179;-68
2022/03/26 08:31:51;;;;;;;42.70;21.52;;;;;;;12.11;74.42;-24155.13;5033303;28;20277;-67
2022/03/26 08:34:18;;;;;;;36.60;21.60;;;;;;;11.95;75.19;-24150.88;5033199;28;20178;-68
2022/03/26 08:36:44;;;;;;;43.30;21.30;;;;;;;11.70;74.06;-24143.69;5032755;28;20193;-65
2022/03/26 08:39:10;;;;;;;35.17;21.35;;;;;;;11.66;72.38;-24142.72;5033857;28;20245;-65
2022/03/26 08:41:36;;;;;;;36.22;20.95;;;;;;;12.06;72.36;-24153.84;5006510;28;20199;-63
2022/03/26 08:44:01;;;;;;;37.13;19.92;;;;;;;12.27;72.96;-24159.75;5034051;28;20716;-66
2022/03/26 08:46:27;;;;;;;34.58;19.20;;;;;;;12.34;72.57;-24161.59;5034572;28;20213;-69
2022/03/26 08:48:53;;;;;;;38.63;21.27;;;;;;;12.20;70.40;-24157.78;5033995;28;20175;-64
2022/03/26 08:51:19;;;;;;;36.17;20.00;;;;;;;12.60;68.35;-24168.91;5014977;28;20265;-68
2022/03/26 08:53:45;;;;;;;35.83;19.70;;;;;;;12.65;68.71;-24170.16;5033396;28;20183;-67
2022/03/26 08:56:11;;;;;;;34.78;18.92;;;;;;;12.79;67.00;-24174.09;5031929;28;20187;-68
2022/03/26 08:58:37;;;;;;;35.08;19.48;;;;;;;12.78;64.83;-24173.81;5033788;28;20673;-66
2022/03/26 09:01:04;;;;;;;32.92;18.05;;;;;;;13.32;62.27;-24188.72;5033299;28;20198;-69
2022/03/26 09:03:30;;;;;;;28.33;17.60;;;;;;;13.09;60.65;-24182.41;5031738;28;20619;-67
2022/03/26 09:05:57;;;;;;;32.60;17.73;;;;;;;12.77;63.63;-24173.53;5032176;28;20234;-66
2022/03/26 09:08:23;;;;;;;30.50;19.08;;;;;;;12.98;63.65;-24179.44;5037025;28;20187;-67
2022/03/26 09:10:48;;;;;;;31.80;17.77;;;;;;;13.43;61.10;-24191.81;5036699;28;20268;-64
2022/03/26 09:13:15;;;;;;;33.15;17.23;;;;;;;13.57;58.36;-24195.75;5035631;28;20218;-65
2022/03/26 09:15:40;;;;;;;35.83;17.15;;;;;;;14.08;56.02;-24209.91;5038400;28;20167;-65
2022/03/26 09:18:06;;;;;;;36.10;17.50;;;;;;;13.92;56.51;-24205.56;5040655;28;20207;-67
2022/03/26 09:20:32;;;;;;;28.13;16.95;;;;;;;14.62;55.17;-24224.94;5037249;28;20267;-65
2022/03/26 09:22:58;;;;;;;27.95;16.92;;;;;;;14.38;56.12;-24218.34;5038014;28;20179;-68
2022/03/26 09:25:24;;;;;;;27.83;16.65;;;;;;;14.62;54.65;-24224.78;5035265;28;20190;-69
2022/03/26 09:27:50;;;;;;;26.92;16.70;;;;;;;14.56;54.58;-24223.41;5037093;28;20206;-67
2022/03/26 09:30:17;;;;;;;33.17;15.88;;;;;;;14.44;52.85;-24220.03;5036766;28;20231;-67
2022/03/26 09:32:46;;;;;;;28.02;16.67;;;;;;;14.57;53.90;-24223.66;5036199;28;20618;-66
2022/03/26 09:35:13;;;;;;;29.25;15.40;;;;;;;14.87;52.27;-24231.94;5036072;28;20167;-66
2022/03/26 09:37:40;;;;;;;35.20;16.40;;;;;;;15.13;51.88;-24238.94;5037759;28;20215;-69
2022/03/26 09:40:11;;;;;;;31.40;16.58;;;;;;;15.14;50.99;-24239.38;5019942;28;20208;-66
2022/03/26 09:42:38;;;;;;;31.85;15.68;;;;;;;15.30;51.54;-24243.84;5036751;28;20658;-68
2022/03/26 09:45:06;;;;;;;25.95;15.63;;;;;;;15.48;51.04;-24248.75;5038044;28;20222;-67
2022/03/26 09:47:32;;;;;;;28.05;15.93;;;;;;;15.47;46.86;-24248.63;5037912;28;20174;-68
2022/03/26 09:49:59;;;;;;;28.08;17.13;;;;;;;14.97;48.56;-24234.75;5032219;28;20201;-66
2022/03/26 09:52:25;;;;;;;30.50;16.10;;;;;;;14.69;47.31;-24226.75;5038575;28;20175;-64
2022/03/26 09:54:50;;;;;;;33.88;15.32;;;;;;;14.75;50.37;-24228.44;5036837;28;20547;-67
2022/03/26 09:57:16;;;;;;;34.25;15.88;;;;;;;14.58;49.12;-24223.94;5038201;28;20732;-67
2022/03/26 09:59:41;;;;;;;29.52;16.38;;;;;;;14.33;51.16;-24216.94;5036179;28;20634;-68
2022/03/26 10:02:07;;;;;;;26.85;16.27;;;;;;;14.22;51.21;-24213.72;5037532;28;20201;-67
2022/03/26 10:04:37;;;;;;;29.30;15.30;;;;;;;14.36;50.05;-24217.66;5035873;28;20182;-66
2022/03/26 10:07:04;;;;;;;27.13;14.82;;;;;;;14.20;47.72;-24213.28;5037402;28;20213;-64
2022/03/26 10:09:40;;;;;;;26.15;15.63;;;;;;;14.76;48.91;-24228.72;5036055;28;20194;-67
2022/03/26 10:12:08;;;;;;;23.77;15.10;;;;;;;14.91;46.48;-24232.94;5035831;28;20276;-68
2022/03/26 10:14:37;;;;;;;30.00;15.82;;;;;;;14.97;46.91;-24234.59;5035541;28;20207;-66
2022/03/26 10:17:14;;;;;;;28.00;15.95;;;;;;;14.68;47.71;-24226.63;5035611;28;20189;-68
2022/03/26 10:19:48;;;;;;;26.30;14.68;;;;;;;14.56;49.58;-24223.25;5035786;28;20193;-67
2022/03/26 10:22:32;;;;;;;21.55;13.00;;;;;;;15.03;48.75;-24236.28;5035177;28;20174;-66
2022/03/26 10:25:00;;;;;;;33.67;15.18;;;;;;;15.44;46.99;-24247.78;5034808;28;20641;-65
2022/03/26 10:27:26;;;;;;;23.83;13.43;;;;;;;15.74;45.65;-24256.03;5035784;28;20384;-64
2022/03/26 10:29:59;;;;;;;30.77;13.98;;;;;;;16.20;44.67;-24268.75;5035483;28;20703;-67
2022/03/26 10:32:39;;;;;;;23.23;13.43;;;;;;;16.29;42.42;-24271.13;5035962;28;20661;-67
2022/03/26 10:35:26;;;;;;;25.10;12.93;;;;;;;16.68;42.70;-24282.03;5035743;28;20188;-65
2022/03/26 10:37:56;;;;;;;22.30;12.30;;;;;;;16.73;41.21;-24283.44;5036161;28;20211;-69
2022/03/26 10:40:27;;;;;;;20.38;12.65;;;;;;;16.39;41.01;-24273.94;5035381;28;20186;-68
2022/03/26 10:43:03;;;;;;;27.10;13.40;;;;;;;16.41;40.26;-24274.50;5033367;28;20185;-67
2022/03/26 10:45:31;;;;;;;20.55;12.90;;;;;;;16.48;40.64;-24276.44;5036624;28;20602;-65
2022/03/26 10:47:58;;;;;;;22.88;13.32;;;;;;;16.43;38.73;-24275.06;5035625;28;20180;-65
2022/03/26 10:50:32;;;;;;;22.83;13.43;;;;;;;16.45;38.63;-24275.47;5036268;28;20266;-66
2022/03/26 10:52:58;;;;;;;29.90;14.05;;;;;;;16.85;38.76;-24286.50;5034817;28;20281;-66
2022/03/26 10:55:24;;;;;;;21.55;12.80;;;;;;;16.90;38.55;-24287.91;5036536;28;20207;-68
2022/03/26 10:57:50;;;;;;;22.42;13.05;;;;;;;16.77;37.95;-24284.56;5035010;28;20400;-67
2022/03/26 11:00:17;;;;;;;21.33;12.88;;;;;;;17.31;36.68;-24299.38;5034832;28;20190;-67
2022/03/26 11:02:44;;;;;;;16.67;12.05;;;;;;;17.15;36.13;-24294.91;5035028;28;20180;-69
2022/03/26 11:05:11;;;;;;;22.17;13.57;;;;;;;17.29;35.45;-24298.66;5036297;28;20325;-65
2022/03/26 11:07:41;;;;;;;23.35;12.55;;;;;;;16.96;35.84;-24289.72;5034654;28;20209;-66